Time;durP1;ratioP1;P1;durP2;ratioP2;P2;SDS_P1;SDS_P2;PMS_P1;PMS_P2;Temp;Humidity;BMP_temperature;BMP_pressure;BME280_temperature;BME280_humidity;BME280_pressure;Samples;Min_cycle;Max_cycle;Signal;HPM_P1;HPM_P2
2021/03/14 00:01:05;;;;;;;6.65;3.77;;;;;;;8.37;51.57;95817.18;1816936;77;27491;-83
2021/03/14 00:03:34;;;;;;;5.90;3.40;;;;;;;8.36;51.74;95822.27;1809603;77;25735;-84
2021/03/14 00:06:02;;;;;;;6.05;3.90;;;;;;;8.36;51.86;95822.27;1831434;77;25893;-83
2021/03/14 00:08:30;;;;;;;6.25;3.80;;;;;;;8.35;51.93;95826.00;1833918;77;25769;-84
2021/03/14 00:11:01;;;;;;;7.17;3.72;;;;;;;8.33;52.01;95826.80;1812906;77;25814;-84
2021/03/14 00:13:33;;;;;;;7.67;3.85;;;;;;;8.32;52.20;95824.33;1840673;77;27946;-85
2021/03/14 00:16:03;;;;;;;7.83;4.47;;;;;;;8.32;52.21;95836.44;1811566;77;25674;-86
2021/03/14 00:18:34;;;;;;;9.23;3.92;;;;;;;8.29;52.39;95835.81;1830576;77;25695;-87
2021/03/14 00:21:04;;;;;;;5.53;3.67;;;;;;;8.30;52.39;95841.48;1809692;77;26233;-85
2021/03/14 00:23:32;;;;;;;7.75;3.92;;;;;;;8.30;52.51;95838.80;1829649;77;25978;-83
2021/03/14 00:26:00;;;;;;;6.62;4.10;;;;;;;8.30;52.72;95838.80;1797915;77;28485;-83
2021/03/14 00:28:27;;;;;;;6.80;4.40;;;;;;;8.32;52.77;95839.94;1796728;77;25810;-87
2021/03/14 00:30:55;;;;;;;5.10;3.67;;;;;;;8.33;52.79;95834.04;1842749;77;25763;-84
2021/03/14 00:33:22;;;;;;;6.37;3.83;;;;;;;8.35;52.94;95827.88;1819620;77;25688;-82
2021/03/14 00:35:50;;;;;;;6.28;4.05;;;;;;;8.35;53.02;95836.76;1797845;77;25816;-82
2021/03/14 00:38:17;;;;;;;6.47;4.15;;;;;;;8.35;53.00;95838.10;1815031;77;28519;-83
2021/03/14 00:40:44;;;;;;;7.25;4.20;;;;;;;8.36;53.01;95832.20;1802883;77;25811;-83
2021/03/14 00:43:12;;;;;;;6.22;4.28;;;;;;;8.36;53.03;95833.02;1801040;77;25848;-85
2021/03/14 00:45:40;;;;;;;8.55;3.90;;;;;;;8.35;53.20;95837.28;1788830;77;26426;-82
2021/03/14 00:48:08;;;;;;;6.22;4.10;;;;;;;8.35;53.27;95842.66;1817326;77;25744;-83
2021/03/14 00:50:38;;;;;;;6.85;3.87;;;;;;;8.35;53.54;95831.91;1814246;77;27489;-83
2021/03/14 00:53:06;;;;;;;6.20;3.72;;;;;;;8.35;53.59;95838.63;1809570;77;25773;-85
2021/03/14 00:55:34;;;;;;;7.15;4.17;;;;;;;8.33;53.87;95845.61;1797220;77;25696;-84
2021/03/14 00:58:02;;;;;;;5.50;4.00;;;;;;;8.32;54.21;95845.84;1829058;77;25678;-84
2021/03/14 01:00:30;;;;;;;5.12;3.87;;;;;;;8.29;54.74;95853.28;1794031;77;25767;-86
2021/03/14 01:02:57;;;;;;;5.55;3.70;;;;;;;8.24;55.31;95858.53;1809542;77;28425;-87
2021/03/14 01:05:24;;;;;;;4.15;3.05;;;;;;;8.16;55.93;95864.27;1817819;77;26118;-87
2021/03/14 01:07:52;;;;;;;7.75;3.15;;;;;;;8.08;56.46;95865.97;1835983;77;25880;-85
2021/03/14 01:10:20;;;;;;;5.08;2.80;;;;;;;7.97;56.75;95874.81;1842801;77;25801;-85
2021/03/14 01:12:47;;;;;;;3.75;2.67;;;;;;;7.86;57.36;95864.34;1821706;77;25731;-85
2021/03/14 01:15:16;;;;;;;4.87;2.87;;;;;;;7.78;57.65;95851.27;1841118;77;26802;-85
2021/03/14 01:17:44;;;;;;;3.83;2.55;;;;;;;7.72;58.17;95856.77;1822796;77;25916;-85
2021/03/14 01:20:16;;;;;;;4.12;2.55;;;;;;;7.72;58.47;95858.92;1838555;77;25715;-85
2021/03/14 01:22:43;;;;;;;;;;;;;;;7.73;58.75;95861.09;1830945;77;26436;-85
2021/03/14 01:25:12;;;;;;;5.25;2.77;;;;;;;7.73;59.12;95861.09;1799281;77;25877;-84
2021/03/14 01:27:45;;;;;;;3.50;3.15;;;;;;;7.68;58.72;95867.66;1842684;77;27472;-84
2021/03/14 01:30:16;;;;;;;4.03;2.67;;;;;;;7.68;59.11;95867.66;1803727;77;25833;-85
2021/03/14 01:32:44;;;;;;;3.87;2.52;;;;;;;7.67;59.22;95884.30;1842779;77;25685;-83
2021/03/14 01:35:13;;;;;;;3.08;2.27;;;;;;;7.68;59.04;95902.58;1842680;77;25744;-84
2021/03/14 01:37:41;;;;;;;4.08;2.40;;;;;;;7.62;59.02;95887.36;1821724;77;26365;-84
2021/03/14 01:40:11;;;;;;;5.67;2.60;;;;;;;7.59;59.04;95890.83;1825793;77;27459;-82
2021/03/14 01:42:38;;;;;;;3.45;2.50;;;;;;;7.55;59.26;95888.81;1842580;77;26070;-84
2021/03/14 01:45:07;;;;;;;3.30;2.15;;;;;;;7.49;59.46;95890.53;1821763;77;25671;-84
2021/03/14 01:47:41;;;;;;;1.90;1.70;;;;;;;7.47;59.39;95897.20;1841263;77;25522;-82
2021/03/14 01:50:13;;;;;;;2.62;1.80;;;;;;;7.42;59.41;95889.83;1804774;77;25902;-86
2021/03/14 01:52:40;;;;;;;3.02;2.17;;;;;;;7.40;59.60;95879.83;1829219;77;27525;-83
2021/03/14 01:55:09;;;;;;;2.15;1.40;;;;;;;7.41;59.55;95890.05;1797574;77;25779;-84
2021/03/14 01:57:37;;;;;;;1.85;1.60;;;;;;;7.36;59.37;95893.95;1815116;77;25770;-83
2021/03/14 02:00:11;;;;;;;3.67;1.17;;;;;;;7.27;58.86;95881.36;1826150;77;26495;-83
2021/03/14 02:02:39;;;;;;;1.50;1.10;;;;;;;7.21;58.63;95869.69;1832460;77;26363;-84
2021/03/14 02:05:10;;;;;;;2.33;1.72;;;;;;;7.20;58.52;95864.02;1808903;77;27503;-82
2021/03/14 02:07:39;;;;;;;1.92;1.52;;;;;;;7.23;58.77;95867.59;1831668;77;25267;-83
2021/03/14 02:10:09;;;;;;;3.30;1.65;;;;;;;7.20;58.79;95870.73;1834930;77;25733;-83
2021/03/14 02:13:05;;;;;;;2.62;1.37;;;;;;;7.15;58.74;95872.44;1828139;77;25781;-84
2021/03/14 02:15:37;;;;;;;1.37;1.10;;;;;;;7.12;58.75;95866.20;1822493;77;25303;-82
2021/03/14 02:18:06;;;;;;;1.70;1.20;;;;;;;7.08;58.73;95863.16;1803438;77;27601;-84
2021/03/14 02:20:36;;;;;;;3.22;1.85;;;;;;;7.07;58.66;95860.17;1842663;77;26196;-84
2021/03/14 02:23:24;;;;;;;1.42;1.20;;;;;;;7.10;58.68;95853.53;1842567;77;26218;-84
2021/03/14 02:26:17;;;;;;;1.87;1.22;;;;;;;7.12;58.50;95852.80;1827243;77;26470;-83
2021/03/14 02:28:44;;;;;;;2.25;1.12;;;;;;;7.08;58.37;95843.03;1838971;77;25758;-83
2021/03/14 02:31:12;;;;;;;2.42;1.20;;;;;;;7.01;58.40;95838.25;1793022;78;27399;-82
2021/03/14 02:33:42;;;;;;;1.77;1.40;;;;;;;6.97;58.64;95841.64;1831728;77;25761;-83
2021/03/14 02:36:11;;;;;;;2.02;1.17;;;;;;;6.95;58.77;95834.33;1812294;77;25714;-83
2021/03/14 02:38:43;;;;;;;1.25;1.12;;;;;;;6.90;58.92;95834.18;1824826;77;25767;-82
2021/03/14 02:41:11;;;;;;;2.83;1.05;;;;;;;6.88;58.83;95834.44;1828839;77;25758;-83
2021/03/14 02:43:39;;;;;;;1.80;0.93;;;;;;;6.86;58.79;95840.02;1793245;77;27495;-83
2021/03/14 02:46:06;;;;;;;2.33;1.57;;;;;;;6.80;58.85;95826.68;1787205;77;25756;-83
2021/03/14 02:48:37;;;;;;;1.50;1.00;;;;;;;6.76;58.93;95824.96;1824033;77;26312;-82
2021/03/14 02:51:06;;;;;;;1.15;1.02;;;;;;;6.76;58.90;95827.64;1803736;77;26540;-83
2021/03/14 02:53:34;;;;;;;1.17;0.80;;;;;;;6.77;58.94;95813.19;1822219;77;25753;-82
2021/03/14 02:56:02;;;;;;;1.05;0.90;;;;;;;6.79;58.93;95800.38;1840329;77;27550;-83
2021/03/14 02:58:30;;;;;;;1.45;0.93;;;;;;;6.82;59.04;95797.25;1824469;77;26182;-83
2021/03/14 03:00:58;;;;;;;1.67;0.98;;;;;;;6.80;59.00;95783.77;1774029;79;25843;-80
2021/03/14 03:03:26;;;;;;;1.35;1.05;;;;;;;6.81;58.83;95795.62;1780432;79;26606;-82
2021/03/14 03:05:58;;;;;;;2.70;1.15;;;;;;;6.77;58.77;95784.22;1763957;79;26422;-82
2021/03/14 03:08:30;;;;;;;;;;;;;;;6.74;58.74;95765.92;1775986;79;27569;-82
2021/03/14 03:11:04;;;;;;;2.72;1.00;;;;;;;6.73;58.70;95769.64;1763971;79;25770;-82
2021/03/14 03:13:38;;;;;;;1.27;1.00;;;;;;;6.70;58.57;95781.63;1776654;79;25687;-82
2021/03/14 03:16:08;;;;;;;1.00;0.80;;;;;;;6.67;58.54;95792.80;1777420;79;25815;-83
2021/03/14 03:18:36;;;;;;;0.93;0.85;;;;;;;6.65;58.60;95793.55;1790097;79;25781;-83
2021/03/14 03:21:04;;;;;;;1.62;0.98;;;;;;;6.66;58.62;95801.89;1787293;78;27533;-86
2021/03/14 03:23:31;;;;;;;1.45;1.35;;;;;;;6.64;58.59;95793.80;1768501;78;25755;-83
2021/03/14 03:26:01;;;;;;;1.55;1.07;;;;;;;6.56;58.59;95798.93;1778879;79;25814;-83
2021/03/14 03:28:29;;;;;;;1.62;1.00;;;;;;;6.51;58.78;95801.48;1771776;79;26499;-83
2021/03/14 03:30:56;;;;;;;1.40;0.95;;;;;;;6.52;58.85;95812.47;1784781;79;25736;-83
2021/03/14 03:33:24;;;;;;;2.25;0.78;;;;;;;6.47;59.01;95819.05;1795738;78;27465;-83
2021/03/14 03:35:51;;;;;;;1.37;0.80;;;;;;;6.39;58.86;95821.52;1785350;79;25757;-83
2021/03/14 03:38:19;;;;;;;1.22;1.00;;;;;;;6.40;58.88;95818.32;1772467;79;25714;-83
2021/03/14 03:40:46;;;;;;;2.27;0.88;;;;;;;6.37;58.87;95817.41;1764393;79;26535;-84
2021/03/14 03:43:20;;;;;;;2.35;1.00;;;;;;;6.29;59.04;95802.95;1781647;79;25683;-83
2021/03/14 03:45:52;;;;;;;1.92;1.00;;;;;;;6.27;59.05;95807.74;1788824;79;27491;-83
2021/03/14 03:48:24;;;;;;;2.45;1.60;;;;;;;6.28;59.17;95816.87;1761040;79;25735;-83
2021/03/14 03:50:55;;;;;;;5.90;1.65;;;;;;;6.28;59.16;95822.78;1764098;79;25838;-84
2021/03/14 03:53:23;;;;;;;4.00;1.42;;;;;;;6.25;59.20;95818.68;1767458;79;25802;-83
2021/03/14 03:55:53;;;;;;;3.50;1.40;;;;;;;6.24;59.29;95830.95;1793613;79;25718;-84
2021/03/14 03:58:23;;;;;;;2.60;1.37;;;;;;;6.29;59.44;95825.21;1769473;79;27494;-83
2021/03/14 04:00:52;;;;;;;4.17;1.80;;;;;;;6.32;59.50;95831.99;1787378;78;26144;-83
2021/03/14 04:03:22;;;;;;;5.17;2.22;;;;;;;6.36;59.33;95843.39;1797432;78;25663;-83
2021/03/14 04:05:55;;;;;;;2.47;1.50;;;;;;;6.45;59.43;95848.75;1788773;78;25764;-83
2021/03/14 04:08:23;;;;;;;4.60;1.85;;;;;;;6.50;59.41;95848.09;1788815;78;25858;-83
2021/03/14 04:10:53;;;;;;;4.85;2.52;;;;;;;6.45;59.41;95847.41;1797295;78;27552;-83
2021/03/14 04:13:21;;;;;;;4.40;2.10;;;;;;;6.40;59.50;95850.48;1820208;78;26111;-83
2021/03/14 04:15:49;;;;;;;1.65;0.80;;;;;;;6.39;59.45;95830.08;1799939;78;25719;-83
2021/03/14 04:18:19;;;;;;;1.17;0.60;;;;;;;6.42;59.24;95832.29;1794291;78;26207;-83
2021/03/14 04:20:49;;;;;;;1.65;1.20;;;;;;;6.44;59.02;95836.91;1804204;78;26005;-84
2021/03/14 04:23:20;;;;;;;1.35;0.82;;;;;;;6.44;58.92;95830.20;1813891;78;28465;-82
2021/03/14 04:25:52;;;;;;;4.12;1.32;;;;;;;6.42;58.84;95839.81;1796054;78;26222;-85
2021/03/14 04:28:20;;;;;;;3.15;1.00;;;;;;;6.40;58.87;95842.44;1813372;78;25800;-83
2021/03/14 04:30:49;;;;;;;1.10;0.68;;;;;;;6.39;58.78;95834.09;1794403;78;25857;-83
2021/03/14 04:33:18;;;;;;;3.12;1.00;;;;;;;6.35;58.80;95836.92;1792734;78;25793;-83
2021/03/14 04:35:46;;;;;;;2.15;0.88;;;;;;;6.34;58.91;95832.59;1797276;78;27486;-83
2021/03/14 04:38:14;;;;;;;2.33;0.93;;;;;;;6.33;58.85;95822.91;1810570;78;25683;-82
2021/03/14 04:40:43;;;;;;;2.10;0.98;;;;;;;6.31;58.83;95820.45;1798356;78;25766;-83
2021/03/14 04:43:11;;;;;;;1.32;0.85;;;;;;;6.27;58.80;95819.80;1801209;78;25729;-82
2021/03/14 04:45:39;;;;;;;1.60;1.00;;;;;;;6.27;58.91;95827.84;1798254;78;25759;-85
2021/03/14 04:48:07;;;;;;;1.87;0.78;;;;;;;6.30;58.94;95839.44;1806277;78;27555;-82
2021/03/14 04:50:35;;;;;;;1.17;0.98;;;;;;;6.29;58.87;95835.93;1792927;78;25753;-83
2021/03/14 04:53:04;;;;;;;1.50;0.90;;;;;;;6.26;58.83;95839.59;1788648;78;25873;-82
2021/03/14 04:55:33;;;;;;;2.45;0.65;;;;;;;6.22;58.83;95829.02;1790123;78;25754;-83
2021/03/14 04:58:02;;;;;;;1.35;0.57;;;;;;;6.20;58.84;95824.39;1821011;78;25754;-82
2021/03/14 05:00:30;;;;;;;0.72;0.60;;;;;;;6.21;58.96;95815.32;1801067;78;27487;-82
2021/03/14 05:03:00;;;;;;;1.80;1.10;;;;;;;6.21;58.98;95813.98;1794994;77;25726;-84
2021/03/14 05:05:28;;;;;;;5.92;1.05;;;;;;;6.22;59.18;95823.66;1822657;77;25739;-84
2021/03/14 05:07:57;;;;;;;1.80;1.02;;;;;;;6.23;59.03;95827.45;1819269;77;25831;-83
2021/03/14 05:10:27;;;;;;;1.37;0.90;;;;;;;6.25;59.39;95830.73;1823488;77;25386;-83
2021/03/14 05:12:55;;;;;;;2.12;1.07;;;;;;;6.26;59.24;95834.23;1789428;77;27503;-84
2021/03/14 05:15:23;;;;;;;1.00;0.95;;;;;;;6.26;59.25;95835.58;1787309;77;25344;-83
2021/03/14 05:17:51;;;;;;;1.20;0.95;;;;;;;6.27;59.23;95830.00;1802898;77;25738;-83
2021/03/14 05:20:21;;;;;;;2.65;0.90;;;;;;;6.26;59.25;95827.54;1812254;77;25690;-84
2021/03/14 05:22:51;;;;;;;2.02;1.20;;;;;;;6.26;59.26;95823.52;1819260;77;25781;-87
2021/03/14 05:25:20;;;;;;;3.70;1.20;;;;;;;6.24;59.17;95821.58;1842665;77;28913;-84
2021/03/14 05:27:51;;;;;;;1.45;0.88;;;;;;;6.21;59.44;95813.46;1842656;77;25768;-84
2021/03/14 05:30:26;;;;;;;2.52;1.10;;;;;;;6.31;59.85;95812.94;1842806;77;25761;-84
2021/03/14 05:32:56;;;;;;;2.20;1.37;;;;;;;6.44;59.83;95807.42;1841815;77;26466;-84
2021/03/14 05:35:27;;;;;;;2.08;1.00;;;;;;;6.45;59.28;95795.14;1821574;77;25747;-84
2021/03/14 05:37:57;;;;;;;1.57;1.20;;;;;;;6.43;59.11;95791.86;1842789;77;28506;-85
2021/03/14 05:40:27;;;;;;;2.27;1.30;;;;;;;6.45;59.13;95785.77;1842610;77;25774;-84
2021/03/14 05:42:55;;;;;;;6.65;1.77;;;;;;;6.52;59.21;95788.90;1820173;77;25719;-83
2021/03/14 05:45:24;;;;;;;2.47;1.40;;;;;;;6.56;59.38;95788.20;1841655;77;25763;-84
2021/03/14 05:47:52;;;;;;;1.72;1.02;;;;;;;6.61;59.26;95774.95;1842807;77;25760;-84
2021/03/14 05:50:23;;;;;;;2.87;1.65;;;;;;;6.64;59.10;95761.08;1842576;77;28454;-84
2021/03/14 05:52:51;;;;;;;4.00;1.85;;;;;;;6.62;59.01;95756.48;1842663;77;26157;-85
2021/03/14 05:55:24;;;;;;;1.65;1.50;;;;;;;6.61;58.94;95758.05;1810825;77;26323;-83
2021/03/14 05:57:54;;;;;;;1.95;1.15;;;;;;;6.61;58.88;95764.23;1809496;77;25848;-84
2021/03/14 06:00:26;;;;;;;3.22;1.37;;;;;;;6.60;58.84;95777.34;1809503;77;25911;-84
2021/03/14 06:02:59;;;;;;;4.45;1.70;;;;;;;6.62;58.91;95785.16;1803388;77;28478;-84
2021/03/14 06:05:30;;;;;;;3.52;1.67;;;;;;;6.64;58.77;95778.50;1821610;77;26028;-85
2021/03/14 06:07:59;;;;;;;2.40;1.42;;;;;;;6.63;58.64;95788.14;1826956;77;25757;-84
2021/03/14 06:10:26;;;;;;;2.95;1.35;;;;;;;6.63;58.67;95799.69;1819641;77;26392;-84
2021/03/14 06:12:54;;;;;;;2.87;1.60;;;;;;;6.63;58.60;95805.56;1847017;77;25771;-84
2021/03/14 06:15:22;;;;;;;3.00;1.80;;;;;;;6.66;58.34;95805.91;1825732;77;27538;-84
2021/03/14 06:17:50;;;;;;;3.17;1.65;;;;;;;6.64;58.15;95807.99;1810350;77;25795;-83
2021/03/14 06:20:41;;;;;;;4.42;2.20;;;;;;;6.63;58.06;95829.70;1829350;77;25766;-84
2021/03/14 06:23:13;;;;;;;4.03;1.60;;;;;;;6.64;57.92;95830.00;1818070;77;26398;-83
2021/03/14 06:25:44;;;;;;;3.15;1.30;;;;;;;6.63;57.83;95825.16;1824177;77;26546;-84
2021/03/14 06:28:12;;;;;;;4.55;1.50;;;;;;;6.65;57.67;95829.75;1839181;77;27501;-84
2021/03/14 06:30:41;;;;;;;2.15;1.15;;;;;;;6.65;57.55;95835.11;1842518;77;25745;-84
2021/03/14 06:33:18;;;;;;;2.40;1.42;;;;;;;6.65;57.45;95850.38;1842537;77;25799;-83
2021/03/14 06:35:52;;;;;;;1.65;1.20;;;;;;;6.66;57.43;95861.40;1842674;77;25462;-81
2021/03/14 06:38:33;;;;;;;3.77;1.50;;;;;;;6.65;57.36;95856.55;1842434;77;25827;-83
2021/03/14 06:41:08;;;;;;;2.62;1.10;;;;;;;6.67;57.33;95855.81;1842987;77;27434;-83
2021/03/14 06:43:45;;;;;;;2.27;1.15;;;;;;;6.68;57.19;95851.27;1834888;77;25671;-84
2021/03/14 06:46:31;;;;;;;2.55;1.32;;;;;;;6.70;57.13;95859.92;1829809;77;25739;-84
2021/03/14 06:49:14;;;;;;;3.15;1.37;;;;;;;6.73;57.18;95889.80;1831141;77;25668;-84
2021/03/14 06:51:43;;;;;;;;;;;;;;;6.74;57.02;95887.94;1835582;77;25777;-83
2021/03/14 06:54:31;;;;;;;4.12;0.95;;;;;;;6.75;57.07;95880.19;1822342;77;28696;-84
2021/03/14 06:57:19;;;;;;;1.10;1.00;;;;;;;6.74;56.96;95869.98;1831295;77;43801;-83
2021/03/14 06:59:58;;;;;;;5.50;2.15;;;;;;;6.77;56.98;95856.09;1842651;77;25837;-82
2021/03/14 07:02:28;;;;;;;4.12;2.83;;;;;;;6.80;56.96;95861.55;1816219;77;25901;-83
2021/03/14 07:05:01;;;;;;;4.97;2.62;;;;;;;6.82;56.89;95860.28;1823472;77;25938;-83
2021/03/14 07:07:32;;;;;;;3.50;1.85;;;;;;;6.86;56.92;95847.25;1842704;77;27558;-83
2021/03/14 07:10:08;;;;;;;3.42;1.42;;;;;;;6.86;56.79;95848.06;1842674;77;25793;-81
2021/03/14 07:12:40;;;;;;;2.20;1.47;;;;;;;6.87;56.68;95855.59;1831080;77;25674;-84
2021/03/14 07:15:20;;;;;;;4.95;1.82;;;;;;;6.83;56.62;95852.53;1810326;77;25745;-84
2021/03/14 07:18:00;;;;;;;3.87;1.60;;;;;;;6.84;56.48;95856.86;1839019;77;25742;-84
2021/03/14 07:20:31;;;;;;;2.27;1.42;;;;;;;6.82;56.46;95856.26;1826449;77;28792;-84
2021/03/14 07:23:09;;;;;;;5.20;1.72;;;;;;;6.82;56.51;95862.96;1798655;77;25715;-83
2021/03/14 07:25:43;;;;;;;2.52;1.52;;;;;;;6.86;56.51;95868.19;1826970;77;25716;-83
2021/03/14 07:28:12;;;;;;;2.90;1.45;;;;;;;6.86;56.46;95860.14;1803459;77;25816;-84
2021/03/14 07:30:40;;;;;;;3.47;1.50;;;;;;;6.88;56.37;95863.39;1842660;77;25734;-84
2021/03/14 07:33:09;;;;;;;4.72;1.87;;;;;;;6.91;56.31;95859.96;1842590;77;27516;-83
2021/03/14 07:35:36;;;;;;;3.58;2.08;;;;;;;6.90;56.40;95860.48;1780561;79;25673;-80
2021/03/14 07:38:04;;;;;;;6.67;1.70;;;;;;;6.92;56.15;95860.27;1787133;77;25786;-83
2021/03/14 07:40:31;;;;;;;3.65;1.98;;;;;;;6.92;56.05;95858.40;1809810;77;25725;-84
2021/03/14 07:43:01;;;;;;;4.17;2.20;;;;;;;6.93;56.04;95839.10;1844727;77;26488;-84
2021/03/14 07:45:30;;;;;;;5.75;2.12;;;;;;;6.95;56.08;95853.93;1832063;77;27477;-83
2021/03/14 07:48:01;;;;;;;8.78;3.12;;;;;;;7.00;56.13;95858.63;1829549;77;25724;-84
2021/03/14 07:50:41;;;;;;;9.15;3.65;;;;;;;7.02;56.11;95850.62;1833774;77;25681;-82
2021/03/14 07:53:11;;;;;;;28.02;10.15;;;;;;;7.07;56.13;95862.03;1791763;77;25781;-82
2021/03/14 07:55:42;;;;;;;57.08;23.05;;;;;;;7.10;56.06;95851.67;1813728;77;25801;-82
2021/03/14 07:58:15;;;;;;;16.17;6.85;;;;;;;7.13;55.91;95850.38;1802512;77;28394;-84
2021/03/14 08:00:42;;;;;;;;;;;;;;;7.13;55.97;95859.24;1803823;77;26105;-86
2021/03/14 08:03:11;;;;;;;43.28;13.35;;;;;;;7.18;56.26;95866.11;1809071;77;25756;-82
2021/03/14 08:05:44;;;;;;;65.35;20.40;;;;;;;7.21;56.07;95872.89;1833149;77;26394;-84
2021/03/14 08:08:30;;;;;;;23.73;6.80;;;;;;;7.23;56.02;95874.83;1842807;77;25756;-85
2021/03/14 08:10:58;;;;;;;9.18;3.55;;;;;;;7.29;55.96;95883.30;1803616;77;27493;-82
2021/03/14 08:13:34;;;;;;;7.28;2.92;;;;;;;7.37;55.94;95885.65;1837010;77;26048;-83
2021/03/14 08:16:06;;;;;;;7.62;2.70;;;;;;;7.42;55.78;95887.14;1839159;77;25817;-84
2021/03/14 08:18:41;;;;;;;5.55;2.50;;;;;;;7.48;55.72;95884.90;1823931;77;26490;-81
2021/03/14 08:21:31;;;;;;;6.22;2.30;;;;;;;7.54;55.70;95888.00;1843127;77;25760;-83
2021/03/14 08:24:00;;;;;;;3.92;1.85;;;;;;;7.57;55.56;95896.95;1817106;77;27468;-83
2021/03/14 08:26:32;;;;;;;6.12;2.25;;;;;;;7.57;55.15;95904.18;1832760;77;25810;-81
2021/03/14 08:29:09;;;;;;;5.65;2.87;;;;;;;7.56;55.25;95912.76;1827050;77;25666;-81
2021/03/14 08:31:56;;;;;;;5.60;2.55;;;;;;;7.57;55.28;95910.38;1842744;77;25730;-85
2021/03/14 08:34:32;;;;;;;7.35;2.37;;;;;;;7.61;55.39;95913.95;1805914;77;25826;-82
2021/03/14 08:37:00;;;;;;;7.90;3.00;;;;;;;7.70;55.33;95912.56;1802634;77;27567;-81
2021/03/14 08:39:36;;;;;;;13.45;5.75;;;;;;;7.69;55.21;95910.92;1821875;77;25881;-82
2021/03/14 08:42:05;;;;;;;9.13;4.97;;;;;;;7.66;55.10;95916.75;1842812;77;25763;-82
2021/03/14 08:44:38;;;;;;;4.60;2.22;;;;;;;7.63;55.04;95922.57;1842713;77;26262;-82
2021/03/14 08:47:14;;;;;;;11.97;6.12;;;;;;;7.59;55.13;95908.80;1827641;77;25682;-83
2021/03/14 08:49:52;;;;;;;16.77;7.22;;;;;;;7.63;55.22;95917.20;1799719;77;27496;-85
2021/03/14 08:52:20;;;;;;;6.62;2.80;;;;;;;7.66;55.05;95922.13;1818978;77;25807;-83
2021/03/14 08:54:54;;;;;;;5.05;3.47;;;;;;;7.64;55.09;95921.53;1842615;77;25666;-83
2021/03/14 08:57:22;;;;;;;6.80;2.90;;;;;;;7.69;55.11;95917.64;1819338;77;25912;-84
2021/03/14 08:59:53;;;;;;;5.55;2.35;;;;;;;7.75;55.10;95923.42;1842639;77;26353;-84
2021/03/14 09:02:28;;;;;;;8.70;3.17;;;;;;;7.81;55.11;95919.84;1810810;77;27488;-85
2021/03/14 09:05:19;;;;;;;5.33;1.90;;;;;;;7.85;55.08;95920.99;1791356;79;25816;-83
2021/03/14 09:07:59;;;;;;;3.83;1.60;;;;;;;7.87;55.04;95916.21;1771328;79;25893;-81
2021/03/14 09:10:27;;;;;;;5.30;2.65;;;;;;;7.90;54.73;95923.30;1777871;79;26429;-83
2021/03/14 09:13:02;;;;;;;5.12;2.80;;;;;;;7.92;54.85;95921.73;1764995;79;25774;-84
2021/03/14 09:15:30;;;;;;;5.12;2.00;;;;;;;7.95;54.90;95918.06;1763903;79;27535;-82
2021/03/14 09:18:00;;;;;;;3.27;1.92;;;;;;;7.95;54.85;95908.66;1788494;79;25770;-83
2021/03/14 09:20:28;;;;;;;6.87;2.77;;;;;;;7.97;54.83;95907.05;1770360;79;25736;-82
2021/03/14 09:22:55;;;;;;;11.70;4.80;;;;;;;8.00;54.86;95901.23;1767712;79;25819;-82
2021/03/14 09:25:23;;;;;;;18.95;8.25;;;;;;;8.06;54.77;95901.66;1781276;79;26660;-82
2021/03/14 09:27:50;;;;;;;8.25;3.60;;;;;;;8.08;54.75;95903.59;1764950;79;27497;-82
2021/03/14 09:30:22;;;;;;;14.73;5.85;;;;;;;8.10;54.64;95913.56;1788939;79;25925;-82
2021/03/14 09:32:55;;;;;;;5.60;3.08;;;;;;;8.16;54.55;95917.20;1777129;79;26244;-83
2021/03/14 09:35:35;;;;;;;5.78;2.35;;;;;;;8.21;54.58;95917.34;1772571;79;26465;-83
2021/03/14 09:38:14;;;;;;;5.50;2.72;;;;;;;8.24;54.41;95916.85;1764376;79;25759;-84
2021/03/14 09:40:47;;;;;;;2.62;1.77;;;;;;;8.23;54.38;95913.34;1777291;79;27496;-84
2021/03/14 09:43:28;;;;;;;3.00;1.55;;;;;;;8.24;54.42;95912.82;1776105;79;25822;-83
2021/03/14 09:46:00;;;;;;;8.88;3.72;;;;;;;8.23;54.28;95916.03;1770382;79;25766;-83
2021/03/14 09:48:32;;;;;;;17.32;7.80;;;;;;;8.22;54.39;95916.27;1788463;79;26341;-85
2021/03/14 09:51:09;;;;;;;12.35;6.75;;;;;;;8.25;54.21;95912.59;1763889;79;26269;-83
2021/03/14 09:53:41;;;;;;;8.88;3.50;;;;;;;8.29;54.23;95911.61;1768562;79;27550;-85
2021/03/14 09:56:12;;;;;;;12.43;6.70;;;;;;;8.34;54.17;95909.58;1783876;79;25894;-84
2021/03/14 09:58:40;;;;;;;15.00;6.42;;;;;;;8.36;53.99;95913.67;1777382;79;25725;-84
2021/03/14 10:01:09;;;;;;;5.65;2.92;;;;;;;8.40;54.05;95921.58;1764979;78;26475;-82
2021/03/14 10:03:37;;;;;;;4.00;2.08;;;;;;;8.43;53.94;95920.30;1833019;77;25839;-82
2021/03/14 10:06:10;;;;;;;4.12;2.30;;;;;;;8.45;53.85;95922.23;1846180;77;28418;-83
2021/03/14 10:08:40;;;;;;;3.40;1.72;;;;;;;8.39;53.81;95928.53;1837101;76;25840;-82
2021/03/14 10:11:12;;;;;;;5.50;2.62;;;;;;;8.37;53.68;95940.04;1823245;77;26250;-84
2021/03/14 10:13:43;;;;;;;35.03;14.73;;;;;;;8.33;53.67;95949.64;1821721;77;25719;-84
2021/03/14 10:16:17;;;;;;;9.40;4.92;;;;;;;8.33;53.65;95957.19;1826617;77;25756;-84
2021/03/14 10:18:46;;;;;;;9.10;4.47;;;;;;;8.35;53.54;95963.64;1845261;77;27268;-82
2021/03/14 10:21:26;;;;;;;14.30;6.80;;;;;;;8.34;53.45;95967.38;1823687;77;25760;-84
2021/03/14 10:24:18;;;;;;;19.98;9.55;;;;;;;8.33;53.57;95968.46;1821544;77;25664;-84
2021/03/14 10:27:04;;;;;;;13.98;6.95;;;;;;;8.37;53.42;95974.99;1815159;77;25638;-84
2021/03/14 10:29:39;;;;;;;6.58;3.12;;;;;;;8.34;53.35;95978.14;1819907;77;25730;-83
2021/03/14 10:32:25;;;;;;;8.28;3.52;;;;;;;8.27;52.94;95980.39;1835279;77;27528;-84
2021/03/14 10:34:57;;;;;;;7.80;4.03;;;;;;;8.20;53.06;95981.03;1826274;77;25745;-82
2021/03/14 10:37:34;;;;;;;4.80;2.50;;;;;;;8.19;53.18;95982.08;1837811;77;26420;-82
2021/03/14 10:40:12;;;;;;;5.78;3.30;;;;;;;8.17;53.23;95985.52;1839940;77;26391;-83
2021/03/14 10:42:46;;;;;;;7.53;3.20;;;;;;;8.14;53.32;95987.31;1846351;77;25325;-84
2021/03/14 10:45:21;;;;;;;8.45;3.70;;;;;;;8.12;53.40;95979.19;1855291;77;28678;-84
2021/03/14 10:48:03;;;;;;;9.98;5.17;;;;;;;8.14;53.51;95979.25;1843933;76;26263;-83
2021/03/14 10:50:34;;;;;;;9.85;4.40;;;;;;;8.17;53.60;95981.48;1821755;77;25789;-83
2021/03/14 10:53:11;;;;;;;6.10;3.17;;;;;;;8.24;53.72;95976.81;1821595;77;25762;-83
2021/03/14 10:55:41;;;;;;;3.60;2.40;;;;;;;8.28;53.48;95979.34;1821537;77;25853;-83
2021/03/14 10:58:16;;;;;;;4.40;2.30;;;;;;;8.30;53.33;95996.06;1820733;77;27495;-83
2021/03/14 11:00:51;;;;;;;7.97;3.37;;;;;;;8.30;52.96;95988.00;1844158;77;26069;-82
2021/03/14 11:03:33;;;;;;;3.55;1.90;;;;;;;8.25;52.55;96000.48;1832966;77;25752;-81
2021/03/14 11:06:18;;;;;;;5.22;1.80;;;;;;;8.24;52.50;96002.88;1827812;77;25839;-82
2021/03/14 11:09:02;;;;;;;3.08;1.77;;;;;;;8.23;52.35;96002.58;1836321;77;26326;-82
2021/03/14 11:11:47;;;;;;;4.28;1.72;;;;;;;8.23;52.42;96009.30;1841297;77;28459;-84
2021/03/14 11:14:35;;;;;;;3.27;1.92;;;;;;;8.11;52.46;96025.39;1821572;77;25748;-82
2021/03/14 11:17:08;;;;;;;3.15;1.82;;;;;;;8.03;52.57;96028.42;1828837;77;25676;-85
2021/03/14 11:19:38;;;;;;;4.40;3.00;;;;;;;7.87;52.72;96034.42;1843906;77;26455;-84
2021/03/14 11:22:07;;;;;;;6.70;3.27;;;;;;;7.75;52.93;96025.50;1821796;77;25743;-84
2021/03/14 11:24:35;;;;;;;15.50;6.90;;;;;;;7.68;53.37;96016.72;1824637;77;27698;-86
2021/03/14 11:27:02;;;;;;;11.78;5.83;;;;;;;7.66;53.65;96018.80;1851406;77;25743;-84
2021/03/14 11:29:30;;;;;;;11.78;6.05;;;;;;;7.62;54.14;96028.34;1828949;77;25672;-85
2021/03/14 11:31:57;;;;;;;10.40;4.25;;;;;;;7.64;54.63;96022.23;1835849;77;26127;-84
2021/03/14 11:34:25;;;;;;;14.35;6.42;;;;;;;7.64;54.67;96022.23;1823816;77;25792;-84
2021/03/14 11:36:56;;;;;;;9.50;4.97;;;;;;;7.65;55.04;96023.36;1820818;77;28373;-85
2021/03/14 11:39:23;;;;;;;10.70;6.37;;;;;;;7.67;55.10;96027.98;1837899;77;25789;-84
2021/03/14 11:41:51;;;;;;;13.58;6.53;;;;;;;7.70;55.70;96018.66;1820180;77;25750;-84
2021/03/14 11:44:18;;;;;;;9.70;4.33;;;;;;;7.73;55.68;96023.58;1847502;77;26418;-85
2021/03/14 11:46:45;;;;;;;11.35;4.85;;;;;;;7.75;55.76;96014.75;1833180;77;26374;-85
2021/03/14 11:49:14;;;;;;;9.35;4.42;;;;;;;7.81;56.00;96014.67;1818171;77;28439;-85
2021/03/14 11:51:41;;;;;;;15.35;7.55;;;;;;;7.91;56.11;96010.91;1827685;77;25713;-85
2021/03/14 11:54:10;;;;;;;7.80;4.22;;;;;;;8.02;56.16;96003.94;1819010;77;25744;-84
2021/03/14 11:56:38;;;;;;;5.03;2.65;;;;;;;8.13;55.81;95992.39;1835943;77;26646;-85
2021/03/14 11:59:05;;;;;;;3.70;2.25;;;;;;;8.25;55.81;95985.17;1831054;77;25832;-84
2021/03/14 12:01:33;;;;;;;3.12;2.20;;;;;;;8.36;55.67;95978.73;1841760;77;28499;-85